sensor_id;sensor_type;location;lat;lon;timestamp;temperature;humidity
6752;DHT22;3413;47.680;9.166;2023-04-09T00:02:46;11.70;85.30
6752;DHT22;3413;47.680;9.166;2023-04-09T00:07:48;11.70;85.30
6752;DHT22;3413;47.680;9.166;2023-04-09T00:12:50;11.70;85.30
6752;DHT22;3413;47.680;9.166;2023-04-09T00:17:52;11.60;85.20
6752;DHT22;3413;47.680;9.166;2023-04-09T00:22:54;11.50;85.20
6752;DHT22;3413;47.680;9.166;2023-04-09T00:27:57;11.30;85.10
6752;DHT22;3413;47.680;9.166;2023-04-09T00:32:59;11.20;85.00
6752;DHT22;3413;47.680;9.166;2023-04-09T00:38:05;11.10;85.00
6752;DHT22;3413;47.680;9.166;2023-04-09T00:43:08;11.10;84.90
6752;DHT22;3413;47.680;9.166;2023-04-09T00:48:12;11.10;85.00
6752;DHT22;3413;47.680;9.166;2023-04-09T00:53:15;11.10;85.00
6752;DHT22;3413;47.680;9.166;2023-04-09T00:58:18;11.00;84.90
6752;DHT22;3413;47.680;9.166;2023-04-09T01:03:20;11.00;85.00
6752;DHT22;3413;47.680;9.166;2023-04-09T01:13:53;11.00;84.80
6752;DHT22;3413;47.680;9.166;2023-04-09T01:18:59;11.10;84.90
6752;DHT22;3413;47.680;9.166;2023-04-09T01:24:20;11.20;84.90
6752;DHT22;3413;47.680;9.166;2023-04-09T01:29:49;11.10;84.70
6752;DHT22;3413;47.680;9.166;2023-04-09T01:34:52;11.00;84.80
6752;DHT22;3413;47.680;9.166;2023-04-09T01:39:55;10.90;84.60
6752;DHT22;3413;47.680;9.166;2023-04-09T01:44:57;10.90;84.60
6752;DHT22;3413;47.680;9.166;2023-04-09T01:50:00;10.80;84.70
6752;DHT22;3413;47.680;9.166;2023-04-09T01:55:04;10.60;84.50
6752;DHT22;3413;47.680;9.166;2023-04-09T02:00:07;10.50;84.50
6752;DHT22;3413;47.680;9.166;2023-04-09T02:05:19;10.50;84.50
6752;DHT22;3413;47.680;9.166;2023-04-09T02:10:25;10.40;84.50
6752;DHT22;3413;47.680;9.166;2023-04-09T02:15:28;10.40;84.40
6752;DHT22;3413;47.680;9.166;2023-04-09T02:20:32;10.40;84.50
6752;DHT22;3413;47.680;9.166;2023-04-09T02:25:34;10.40;84.40
6752;DHT22;3413;47.680;9.166;2023-04-09T02:30:36;10.40;84.40
6752;DHT22;3413;47.680;9.166;2023-04-09T02:35:38;10.40;84.40
6752;DHT22;3413;47.680;9.166;2023-04-09T02:40:40;10.40;84.30
6752;DHT22;3413;47.680;9.166;2023-04-09T02:45:42;10.40;84.40
6752;DHT22;3413;47.680;9.166;2023-04-09T02:50:44;10.40;84.20
6752;DHT22;3413;47.680;9.166;2023-04-09T02:55:46;10.30;84.10
6752;DHT22;3413;47.680;9.166;2023-04-09T03:00:57;10.30;84.10
6752;DHT22;3413;47.680;9.166;2023-04-09T03:06:10;10.40;83.90
6752;DHT22;3413;47.680;9.166;2023-04-09T03:11:44;10.30;83.70
6752;DHT22;3413;47.680;9.166;2023-04-09T03:17:18;10.30;83.40
6752;DHT22;3413;47.680;9.166;2023-04-09T03:22:34;10.30;83.30
6752;DHT22;3413;47.680;9.166;2023-04-09T03:28:33;10.30;83.70
6752;DHT22;3413;47.680;9.166;2023-04-09T03:34:11;10.20;83.10
6752;DHT22;3413;47.680;9.166;2023-04-09T03:39:31;10.00;83.10
6752;DHT22;3413;47.680;9.166;2023-04-09T03:44:43;9.90;84.50
6752;DHT22;3413;47.680;9.166;2023-04-09T03:55:57;9.80;84.10
6752;DHT22;3413;47.680;9.166;2023-04-09T04:01:34;9.70;84.10
6752;DHT22;3413;47.680;9.166;2023-04-09T04:07:14;9.60;83.90
6752;DHT22;3413;47.680;9.166;2023-04-09T04:12:32;9.40;83.50
6752;DHT22;3413;47.680;9.166;2023-04-09T04:17:59;9.30;83.60
6752;DHT22;3413;47.680;9.166;2023-04-09T04:23:50;9.30;83.80
6752;DHT22;3413;47.680;9.166;2023-04-09T04:29:34;9.20;83.60
6752;DHT22;3413;47.680;9.166;2023-04-09T04:41:15;9.20;83.20
6752;DHT22;3413;47.680;9.166;2023-04-09T04:46:56;9.10;83.00
6752;DHT22;3413;47.680;9.166;2023-04-09T04:52:01;9.00;83.00
6752;DHT22;3413;47.680;9.166;2023-04-09T04:57:21;9.00;83.10
6752;DHT22;3413;47.680;9.166;2023-04-09T05:02:26;8.80;83.00
6752;DHT22;3413;47.680;9.166;2023-04-09T05:08:06;8.70;82.90
6752;DHT22;3413;47.680;9.166;2023-04-09T05:13:20;8.70;83.00
6752;DHT22;3413;47.680;9.166;2023-04-09T05:19:00;8.70;83.10
6752;DHT22;3413;47.680;9.166;2023-04-09T05:24:18;8.60;82.80
6752;DHT22;3413;47.680;9.166;2023-04-09T05:29:32;8.60;83.30
6752;DHT22;3413;47.680;9.166;2023-04-09T05:35:05;8.60;83.00
6752;DHT22;3413;47.680;9.166;2023-04-09T05:40:31;8.60;83.20
6752;DHT22;3413;47.680;9.166;2023-04-09T05:46:00;8.50;83.20
6752;DHT22;3413;47.680;9.166;2023-04-09T05:51:42;8.60;83.20
6752;DHT22;3413;47.680;9.166;2023-04-09T06:02:48;8.70;83.40
6752;DHT22;3413;47.680;9.166;2023-04-09T06:08:54;8.80;84.30
6752;DHT22;3413;47.680;9.166;2023-04-09T06:20:10;8.90;84.10
6752;DHT22;3413;47.680;9.166;2023-04-09T06:26:02;9.00;84.10
6752;DHT22;3413;47.680;9.166;2023-04-09T06:32:01;9.10;84.50
6752;DHT22;3413;47.680;9.166;2023-04-09T06:37:57;9.20;84.40
6752;DHT22;3413;47.680;9.166;2023-04-09T06:43:48;9.30;84.50
6752;DHT22;3413;47.680;9.166;2023-04-09T06:49:11;9.40;85.10
6752;DHT22;3413;47.680;9.166;2023-04-09T06:54:48;9.50;85.10
6752;DHT22;3413;47.680;9.166;2023-04-09T07:00:15;9.70;85.20
6752;DHT22;3413;47.680;9.166;2023-04-09T07:06:27;9.80;85.40
6752;DHT22;3413;47.680;9.166;2023-04-09T07:11:52;9.90;85.50
6752;DHT22;3413;47.680;9.166;2023-04-09T07:17:10;9.90;85.60
6752;DHT22;3413;47.680;9.166;2023-04-09T07:22:49;10.00;84.70
6752;DHT22;3413;47.680;9.166;2023-04-09T07:28:17;10.10;84.80
6752;DHT22;3413;47.680;9.166;2023-04-09T07:34:04;10.20;84.90
6752;DHT22;3413;47.680;9.166;2023-04-09T07:40:14;10.20;84.60
6752;DHT22;3413;47.680;9.166;2023-04-09T07:46:12;10.40;85.10
6752;DHT22;3413;47.680;9.166;2023-04-09T07:52:04;10.40;85.10
6752;DHT22;3413;47.680;9.166;2023-04-09T07:57:42;10.60;85.40
6752;DHT22;3413;47.680;9.166;2023-04-09T08:03:21;10.70;85.50
6752;DHT22;3413;47.680;9.166;2023-04-09T08:09:06;10.90;85.80
6752;DHT22;3413;47.680;9.166;2023-04-09T08:14:53;11.00;85.90
6752;DHT22;3413;47.680;9.166;2023-04-09T08:20:26;11.30;86.20
6752;DHT22;3413;47.680;9.166;2023-04-09T08:26:43;11.50;87.10
6752;DHT22;3413;47.680;9.166;2023-04-09T08:32:10;12.10;88.00
6752;DHT22;3413;47.680;9.166;2023-04-09T08:44:09;12.40;87.70
6752;DHT22;3413;47.680;9.166;2023-04-09T08:49:41;12.50;87.80
6752;DHT22;3413;47.680;9.166;2023-04-09T09:06:25;13.30;87.70
6752;DHT22;3413;47.680;9.166;2023-04-09T09:11:29;13.30;87.60
6752;DHT22;3413;47.680;9.166;2023-04-09T09:16:33;13.30;87.40
6752;DHT22;3413;47.680;9.166;2023-04-09T09:21:35;13.10;87.00
6752;DHT22;3413;47.680;9.166;2023-04-09T09:26:37;12.90;86.90
6752;DHT22;3413;47.680;9.166;2023-04-09T09:31:47;12.90;87.00
6752;DHT22;3413;47.680;9.166;2023-04-09T09:36:52;13.10;87.30
6752;DHT22;3413;47.680;9.166;2023-04-09T09:42:06;13.30;87.60
6752;DHT22;3413;47.680;9.166;2023-04-09T09:47:09;13.50;87.90
6752;DHT22;3413;47.680;9.166;2023-04-09T09:52:15;13.60;88.20
6752;DHT22;3413;47.680;9.166;2023-04-09T09:57:19;13.90;88.70
6752;DHT22;3413;47.680;9.166;2023-04-09T10:02:23;14.10;88.90
6752;DHT22;3413;47.680;9.166;2023-04-09T10:07:28;14.40;89.10
6752;DHT22;3413;47.680;9.166;2023-04-09T10:12:31;14.70;89.50
6752;DHT22;3413;47.680;9.166;2023-04-09T10:17:33;15.00;89.70
6752;DHT22;3413;47.680;9.166;2023-04-09T10:22:35;15.20;89.60
6752;DHT22;3413;47.680;9.166;2023-04-09T10:27:37;15.40;89.70
6752;DHT22;3413;47.680;9.166;2023-04-09T10:32:39;15.60;89.50
6752;DHT22;3413;47.680;9.166;2023-04-09T10:37:47;15.50;89.30
6752;DHT22;3413;47.680;9.166;2023-04-09T10:42:51;15.70;89.50
6752;DHT22;3413;47.680;9.166;2023-04-09T10:47:55;15.70;89.50
6752;DHT22;3413;47.680;9.166;2023-04-09T10:52:57;15.80;89.60
6752;DHT22;3413;47.680;9.166;2023-04-09T10:58:02;15.80;89.70
6752;DHT22;3413;47.680;9.166;2023-04-09T11:03:21;15.90;90.00
6752;DHT22;3413;47.680;9.166;2023-04-09T11:08:27;16.10;89.90
6752;DHT22;3413;47.680;9.166;2023-04-09T11:13:31;16.30;89.90
6752;DHT22;3413;47.680;9.166;2023-04-09T11:18:33;16.50;90.00
6752;DHT22;3413;47.680;9.166;2023-04-09T11:23:36;16.60;89.70
6752;DHT22;3413;47.680;9.166;2023-04-09T11:28:41;16.50;89.30
6752;DHT22;3413;47.680;9.166;2023-04-09T11:33:46;16.40;89.30
6752;DHT22;3413;47.680;9.166;2023-04-09T11:38:48;16.60;89.60
6752;DHT22;3413;47.680;9.166;2023-04-09T11:43:52;16.90;89.70
6752;DHT22;3413;47.680;9.166;2023-04-09T11:48:54;16.90;89.40
6752;DHT22;3413;47.680;9.166;2023-04-09T11:54:01;17.00;89.60
6752;DHT22;3413;47.680;9.166;2023-04-09T11:59:04;17.00;89.50
6752;DHT22;3413;47.680;9.166;2023-04-09T12:04:06;17.00;89.30
6752;DHT22;3413;47.680;9.166;2023-04-09T12:09:08;17.00;89.50
6752;DHT22;3413;47.680;9.166;2023-04-09T12:14:15;17.10;89.60
6752;DHT22;3413;47.680;9.166;2023-04-09T12:19:17;17.40;89.70
6752;DHT22;3413;47.680;9.166;2023-04-09T12:24:24;17.70;89.40
6752;DHT22;3413;47.680;9.166;2023-04-09T12:29:26;17.80;89.30
6752;DHT22;3413;47.680;9.166;2023-04-09T12:34:30;18.00;89.60
6752;DHT22;3413;47.680;9.166;2023-04-09T12:39:32;18.20;89.60
6752;DHT22;3413;47.680;9.166;2023-04-09T12:44:35;18.40;89.60
6752;DHT22;3413;47.680;9.166;2023-04-09T12:49:38;18.60;89.70
6752;DHT22;3413;47.680;9.166;2023-04-09T12:54:42;18.60;89.60
6752;DHT22;3413;47.680;9.166;2023-04-09T12:59:45;18.80;89.60
6752;DHT22;3413;47.680;9.166;2023-04-09T13:04:47;18.90;89.30
6752;DHT22;3413;47.680;9.166;2023-04-09T13:09:49;18.80;88.90
6752;DHT22;3413;47.680;9.166;2023-04-09T13:14:53;18.70;88.80
6752;DHT22;3413;47.680;9.166;2023-04-09T13:19:55;18.80;88.70
6752;DHT22;3413;47.680;9.166;2023-04-09T13:24:57;18.90;88.50
6752;DHT22;3413;47.680;9.166;2023-04-09T13:29:59;19.10;88.50
6752;DHT22;3413;47.680;9.166;2023-04-09T13:35:00;19.20;88.40
6752;DHT22;3413;47.680;9.166;2023-04-09T13:40:02;19.40;88.20
6752;DHT22;3413;47.680;9.166;2023-04-09T13:45:05;19.40;88.00
6752;DHT22;3413;47.680;9.166;2023-04-09T13:50:08;19.30;87.70
6752;DHT22;3413;47.680;9.166;2023-04-09T13:55:11;19.20;87.60
6752;DHT22;3413;47.680;9.166;2023-04-09T14:00:13;19.30;87.60
6752;DHT22;3413;47.680;9.166;2023-04-09T14:05:14;19.40;87.50
6752;DHT22;3413;47.680;9.166;2023-04-09T14:10:17;19.60;87.50
6752;DHT22;3413;47.680;9.166;2023-04-09T14:15:19;19.60;86.90
6752;DHT22;3413;47.680;9.166;2023-04-09T14:20:21;19.60;86.80
6752;DHT22;3413;47.680;9.166;2023-04-09T14:25:25;19.70;86.90
6752;DHT22;3413;47.680;9.166;2023-04-09T14:30:26;19.80;86.70
6752;DHT22;3413;47.680;9.166;2023-04-09T14:35:28;19.90;86.70
6752;DHT22;3413;47.680;9.166;2023-04-09T14:40:31;20.00;86.50
6752;DHT22;3413;47.680;9.166;2023-04-09T14:45:32;20.00;86.40
6752;DHT22;3413;47.680;9.166;2023-04-09T14:50:34;20.10;86.30
6752;DHT22;3413;47.680;9.166;2023-04-09T14:55:37;20.20;86.20
6752;DHT22;3413;47.680;9.166;2023-04-09T15:00:39;20.00;85.80
6752;DHT22;3413;47.680;9.166;2023-04-09T15:05:41;20.00;86.00
6752;DHT22;3413;47.680;9.166;2023-04-09T15:10:43;20.10;85.80
6752;DHT22;3413;47.680;9.166;2023-04-09T15:15:45;20.20;85.70
6752;DHT22;3413;47.680;9.166;2023-04-09T15:20:47;20.10;85.30
6752;DHT22;3413;47.680;9.166;2023-04-09T15:25:49;20.20;85.30
6752;DHT22;3413;47.680;9.166;2023-04-09T15:30:53;20.20;85.30
6752;DHT22;3413;47.680;9.166;2023-04-09T15:35:55;20.10;85.10
6752;DHT22;3413;47.680;9.166;2023-04-09T15:40:57;20.20;85.20
6752;DHT22;3413;47.680;9.166;2023-04-09T15:46:06;20.20;85.00
6752;DHT22;3413;47.680;9.166;2023-04-09T15:51:09;20.20;84.80
6752;DHT22;3413;47.680;9.166;2023-04-09T15:56:14;20.20;85.30
6752;DHT22;3413;47.680;9.166;2023-04-09T16:01:16;20.30;84.40
6752;DHT22;3413;47.680;9.166;2023-04-09T16:06:19;20.30;84.20
6752;DHT22;3413;47.680;9.166;2023-04-09T16:11:24;20.40;84.10
6752;DHT22;3413;47.680;9.166;2023-04-09T16:16:26;20.30;83.80
6752;DHT22;3413;47.680;9.166;2023-04-09T16:21:28;20.30;83.40
6752;DHT22;3413;47.680;9.166;2023-04-09T16:26:31;20.30;83.30
6752;DHT22;3413;47.680;9.166;2023-04-09T16:31:33;20.10;82.70
6752;DHT22;3413;47.680;9.166;2023-04-09T16:36:36;20.00;82.80
6752;DHT22;3413;47.680;9.166;2023-04-09T16:41:38;19.70;82.40
6752;DHT22;3413;47.680;9.166;2023-04-09T16:46:40;19.50;82.10
6752;DHT22;3413;47.680;9.166;2023-04-09T16:51:43;19.10;82.00
6752;DHT22;3413;47.680;9.166;2023-04-09T16:56:46;19.10;81.80
6752;DHT22;3413;47.680;9.166;2023-04-09T17:01:49;19.10;81.30
6752;DHT22;3413;47.680;9.166;2023-04-09T17:06:52;18.90;82.00
6752;DHT22;3413;47.680;9.166;2023-04-09T17:11:54;19.00;81.40
6752;DHT22;3413;47.680;9.166;2023-04-09T17:16:58;19.30;81.50
6752;DHT22;3413;47.680;9.166;2023-04-09T17:22:00;19.40;81.50
6752;DHT22;3413;47.680;9.166;2023-04-09T17:27:03;19.40;81.60
6752;DHT22;3413;47.680;9.166;2023-04-09T17:32:05;19.40;81.60
6752;DHT22;3413;47.680;9.166;2023-04-09T17:37:07;19.50;81.60
6752;DHT22;3413;47.680;9.166;2023-04-09T17:42:09;19.40;81.50
6752;DHT22;3413;47.680;9.166;2023-04-09T17:47:12;19.30;81.40
6752;DHT22;3413;47.680;9.166;2023-04-09T17:52:14;19.30;81.20
6752;DHT22;3413;47.680;9.166;2023-04-09T17:57:17;19.10;80.90
6752;DHT22;3413;47.680;9.166;2023-04-09T18:02:19;19.00;80.80
6752;DHT22;3413;47.680;9.166;2023-04-09T18:07:22;18.80;81.10
6752;DHT22;3413;47.680;9.166;2023-04-09T18:12:25;18.60;80.30
6752;DHT22;3413;47.680;9.166;2023-04-09T18:17:27;18.40;80.00
6752;DHT22;3413;47.680;9.166;2023-04-09T18:22:29;18.20;79.70
6752;DHT22;3413;47.680;9.166;2023-04-09T18:27:32;18.00;79.70
6752;DHT22;3413;47.680;9.166;2023-04-09T18:32:34;17.80;79.30
6752;DHT22;3413;47.680;9.166;2023-04-09T18:37:36;17.60;79.10
6752;DHT22;3413;47.680;9.166;2023-04-09T18:42:38;17.30;78.80
6752;DHT22;3413;47.680;9.166;2023-04-09T18:47:41;17.00;78.50
6752;DHT22;3413;47.680;9.166;2023-04-09T18:52:43;16.80;78.30
6752;DHT22;3413;47.680;9.166;2023-04-09T18:57:45;16.70;78.10
6752;DHT22;3413;47.680;9.166;2023-04-09T19:02:48;16.60;78.00
6752;DHT22;3413;47.680;9.166;2023-04-09T19:07:55;16.40;77.80
6752;DHT22;3413;47.680;9.166;2023-04-09T19:12:58;16.30;77.70
6752;DHT22;3413;47.680;9.166;2023-04-09T19:18:00;16.10;77.40
6752;DHT22;3413;47.680;9.166;2023-04-09T19:23:02;16.00;77.30
6752;DHT22;3413;47.680;9.166;2023-04-09T19:28:04;16.00;77.10
6752;DHT22;3413;47.680;9.166;2023-04-09T19:33:06;15.70;77.00
6752;DHT22;3413;47.680;9.166;2023-04-09T19:38:08;15.60;76.90
6752;DHT22;3413;47.680;9.166;2023-04-09T19:43:10;15.40;76.70
6752;DHT22;3413;47.680;9.166;2023-04-09T19:48:12;15.20;76.70
6752;DHT22;3413;47.680;9.166;2023-04-09T19:53:14;15.10;77.20
6752;DHT22;3413;47.680;9.166;2023-04-09T19:58:17;15.10;76.50
6752;DHT22;3413;47.680;9.166;2023-04-09T20:03:19;15.00;76.40
6752;DHT22;3413;47.680;9.166;2023-04-09T20:08:21;14.80;76.30
6752;DHT22;3413;47.680;9.166;2023-04-09T20:13:24;14.80;76.30
6752;DHT22;3413;47.680;9.166;2023-04-09T20:18:26;14.70;76.20
6752;DHT22;3413;47.680;9.166;2023-04-09T20:23:29;14.50;76.10
6752;DHT22;3413;47.680;9.166;2023-04-09T20:28:31;14.50;76.10
6752;DHT22;3413;47.680;9.166;2023-04-09T20:33:34;14.40;76.00
6752;DHT22;3413;47.680;9.166;2023-04-09T20:38:36;14.30;75.90
6752;DHT22;3413;47.680;9.166;2023-04-09T20:43:39;14.30;76.00
6752;DHT22;3413;47.680;9.166;2023-04-09T20:48:42;14.30;75.90
6752;DHT22;3413;47.680;9.166;2023-04-09T20:53:44;14.20;75.90
6752;DHT22;3413;47.680;9.166;2023-04-09T20:58:46;14.10;75.90
6752;DHT22;3413;47.680;9.166;2023-04-09T21:03:49;14.10;75.90
6752;DHT22;3413;47.680;9.166;2023-04-09T21:08:51;14.00;75.70
6752;DHT22;3413;47.680;9.166;2023-04-09T21:13:53;14.00;75.70
6752;DHT22;3413;47.680;9.166;2023-04-09T21:18:56;13.70;75.50
6752;DHT22;3413;47.680;9.166;2023-04-09T21:23:59;13.50;75.50
6752;DHT22;3413;47.680;9.166;2023-04-09T21:29:01;13.30;75.50
6752;DHT22;3413;47.680;9.166;2023-04-09T21:34:03;13.30;75.40
6752;DHT22;3413;47.680;9.166;2023-04-09T21:39:05;13.20;75.30
6752;DHT22;3413;47.680;9.166;2023-04-09T21:44:08;13.20;75.20
6752;DHT22;3413;47.680;9.166;2023-04-09T21:49:09;13.20;75.10
6752;DHT22;3413;47.680;9.166;2023-04-09T21:54:11;13.30;75.20
6752;DHT22;3413;47.680;9.166;2023-04-09T21:59:13;13.20;75.10
6752;DHT22;3413;47.680;9.166;2023-04-09T22:04:16;13.10;75.20
6752;DHT22;3413;47.680;9.166;2023-04-09T22:09:17;12.90;75.00
6752;DHT22;3413;47.680;9.166;2023-04-09T22:14:20;12.90;75.00
6752;DHT22;3413;47.680;9.166;2023-04-09T22:19:26;12.80;75.10
6752;DHT22;3413;47.680;9.166;2023-04-09T22:24:29;12.80;75.00
6752;DHT22;3413;47.680;9.166;2023-04-09T22:29:31;12.80;74.90
6752;DHT22;3413;47.680;9.166;2023-04-09T22:34:33;12.80;74.90
6752;DHT22;3413;47.680;9.166;2023-04-09T22:39:35;12.70;74.80
6752;DHT22;3413;47.680;9.166;2023-04-09T22:44:38;12.60;74.70
6752;DHT22;3413;47.680;9.166;2023-04-09T22:49:40;12.60;74.70
6752;DHT22;3413;47.680;9.166;2023-04-09T22:54:42;12.50;74.50
6752;DHT22;3413;47.680;9.166;2023-04-09T22:59:44;12.40;74.60
6752;DHT22;3413;47.680;9.166;2023-04-09T23:04:46;12.30;74.50
6752;DHT22;3413;47.680;9.166;2023-04-09T23:09:48;12.20;74.50
6752;DHT22;3413;47.680;9.166;2023-04-09T23:14:50;12.20;74.40
6752;DHT22;3413;47.680;9.166;2023-04-09T23:19:52;12.20;75.10
6752;DHT22;3413;47.680;9.166;2023-04-09T23:24:53;12.20;74.40
6752;DHT22;3413;47.680;9.166;2023-04-09T23:29:55;12.00;74.30
6752;DHT22;3413;47.680;9.166;2023-04-09T23:34:58;11.80;74.10
6752;DHT22;3413;47.680;9.166;2023-04-09T23:40:01;11.60;74.10
6752;DHT22;3413;47.680;9.166;2023-04-09T23:45:04;11.60;74.10
6752;DHT22;3413;47.680;9.166;2023-04-09T23:50:07;11.50;74.10
6752;DHT22;3413;47.680;9.166;2023-04-09T23:55:09;11.30;73.90
